sensor_id;sensor_type;location;lat;lon;timestamp;temperature;humidity
25128;DHT22;13107;51.304;6.866;2023-12-20T00:00:11;7.40;99.90
25128;DHT22;13107;51.304;6.866;2023-12-20T00:04:13;7.40;99.90
25128;DHT22;13107;51.304;6.866;2023-12-20T00:08:15;7.30;99.90
25128;DHT22;13107;51.304;6.866;2023-12-20T00:12:17;7.30;99.90
25128;DHT22;13107;51.304;6.866;2023-12-20T00:16:19;7.30;99.90
25128;DHT22;13107;51.304;6.866;2023-12-20T00:20:21;7.20;99.90
25128;DHT22;13107;51.304;6.866;2023-12-20T00:24:23;7.20;99.90
25128;DHT22;13107;51.304;6.866;2023-12-20T00:28:25;7.20;99.90
25128;DHT22;13107;51.304;6.866;2023-12-20T00:32:27;7.20;99.90
25128;DHT22;13107;51.304;6.866;2023-12-20T00:36:29;7.30;99.90
25128;DHT22;13107;51.304;6.866;2023-12-20T00:40:31;7.20;99.90
25128;DHT22;13107;51.304;6.866;2023-12-20T00:44:33;7.20;99.90
25128;DHT22;13107;51.304;6.866;2023-12-20T00:48:35;7.10;99.90
25128;DHT22;13107;51.304;6.866;2023-12-20T00:52:37;7.00;99.90
25128;DHT22;13107;51.304;6.866;2023-12-20T00:56:39;7.00;99.90
25128;DHT22;13107;51.304;6.866;2023-12-20T01:00:41;6.90;99.90
25128;DHT22;13107;51.304;6.866;2023-12-20T01:04:46;6.90;99.90
25128;DHT22;13107;51.304;6.866;2023-12-20T01:08:48;6.90;99.90
25128;DHT22;13107;51.304;6.866;2023-12-20T01:12:50;7.00;99.90
25128;DHT22;13107;51.304;6.866;2023-12-20T01:16:52;7.10;99.90
25128;DHT22;13107;51.304;6.866;2023-12-20T01:20:54;7.10;99.90
25128;DHT22;13107;51.304;6.866;2023-12-20T01:24:57;7.00;99.90
25128;DHT22;13107;51.304;6.866;2023-12-20T01:28:59;7.00;99.90
25128;DHT22;13107;51.304;6.866;2023-12-20T01:33:01;7.00;99.90
25128;DHT22;13107;51.304;6.866;2023-12-20T01:37:03;6.90;99.90
25128;DHT22;13107;51.304;6.866;2023-12-20T01:41:06;7.00;99.90
25128;DHT22;13107;51.304;6.866;2023-12-20T01:45:09;6.90;99.90
25128;DHT22;13107;51.304;6.866;2023-12-20T01:49:11;6.90;99.90
25128;DHT22;13107;51.304;6.866;2023-12-20T01:53:14;6.90;99.90
25128;DHT22;13107;51.304;6.866;2023-12-20T01:57:16;6.80;99.90
25128;DHT22;13107;51.304;6.866;2023-12-20T02:01:18;6.70;99.90
25128;DHT22;13107;51.304;6.866;2023-12-20T02:05:21;6.50;99.90
25128;DHT22;13107;51.304;6.866;2023-12-20T02:09:24;6.40;99.90
25128;DHT22;13107;51.304;6.866;2023-12-20T02:13:25;6.30;99.90
25128;DHT22;13107;51.304;6.866;2023-12-20T02:17:29;6.20;99.90
25128;DHT22;13107;51.304;6.866;2023-12-20T02:21:34;6.20;99.90
25128;DHT22;13107;51.304;6.866;2023-12-20T02:25:37;6.10;99.90
25128;DHT22;13107;51.304;6.866;2023-12-20T02:29:39;6.00;99.90
25128;DHT22;13107;51.304;6.866;2023-12-20T02:33:41;6.00;99.90
25128;DHT22;13107;51.304;6.866;2023-12-20T02:37:44;5.90;99.90
25128;DHT22;13107;51.304;6.866;2023-12-20T02:41:46;5.90;99.90
25128;DHT22;13107;51.304;6.866;2023-12-20T02:45:48;6.00;99.90
25128;DHT22;13107;51.304;6.866;2023-12-20T02:49:50;6.00;99.90
25128;DHT22;13107;51.304;6.866;2023-12-20T02:53:52;6.00;99.90
25128;DHT22;13107;51.304;6.866;2023-12-20T02:57:54;5.90;99.90
25128;DHT22;13107;51.304;6.866;2023-12-20T03:01:56;5.90;99.90
25128;DHT22;13107;51.304;6.866;2023-12-20T03:05:59;5.90;99.90
25128;DHT22;13107;51.304;6.866;2023-12-20T03:10:02;6.00;99.90
25128;DHT22;13107;51.304;6.866;2023-12-20T03:14:20;6.00;99.90
25128;DHT22;13107;51.304;6.866;2023-12-20T03:18:22;6.00;99.90
25128;DHT22;13107;51.304;6.866;2023-12-20T03:22:24;6.00;99.90
25128;DHT22;13107;51.304;6.866;2023-12-20T03:26:26;5.90;99.90
25128;DHT22;13107;51.304;6.866;2023-12-20T03:30:28;6.00;99.90
25128;DHT22;13107;51.304;6.866;2023-12-20T03:34:30;5.90;99.90
25128;DHT22;13107;51.304;6.866;2023-12-20T03:38:32;5.80;99.90
25128;DHT22;13107;51.304;6.866;2023-12-20T03:42:34;5.90;99.90
25128;DHT22;13107;51.304;6.866;2023-12-20T03:46:35;5.80;99.90
25128;DHT22;13107;51.304;6.866;2023-12-20T03:50:38;5.80;99.90
25128;DHT22;13107;51.304;6.866;2023-12-20T03:54:40;5.80;99.90
25128;DHT22;13107;51.304;6.866;2023-12-20T03:58:44;5.70;99.90
25128;DHT22;13107;51.304;6.866;2023-12-20T04:02:45;5.70;99.90
25128;DHT22;13107;51.304;6.866;2023-12-20T04:06:47;5.70;99.90
25128;DHT22;13107;51.304;6.866;2023-12-20T04:10:49;5.80;99.90
25128;DHT22;13107;51.304;6.866;2023-12-20T04:14:51;5.70;99.90
25128;DHT22;13107;51.304;6.866;2023-12-20T04:18:53;5.70;99.90
25128;DHT22;13107;51.304;6.866;2023-12-20T04:22:54;5.70;99.90
25128;DHT22;13107;51.304;6.866;2023-12-20T04:26:56;5.60;99.90
25128;DHT22;13107;51.304;6.866;2023-12-20T04:30:58;5.50;99.90
25128;DHT22;13107;51.304;6.866;2023-12-20T04:35:00;5.50;99.90
25128;DHT22;13107;51.304;6.866;2023-12-20T04:39:02;5.50;99.90
25128;DHT22;13107;51.304;6.866;2023-12-20T04:43:04;5.50;99.90
25128;DHT22;13107;51.304;6.866;2023-12-20T04:47:06;5.50;99.90
25128;DHT22;13107;51.304;6.866;2023-12-20T04:51:08;5.60;99.90
25128;DHT22;13107;51.304;6.866;2023-12-20T04:55:10;5.60;99.90
25128;DHT22;13107;51.304;6.866;2023-12-20T04:59:11;5.70;99.90
25128;DHT22;13107;51.304;6.866;2023-12-20T05:03:13;5.70;99.90
25128;DHT22;13107;51.304;6.866;2023-12-20T05:07:15;5.70;99.90
25128;DHT22;13107;51.304;6.866;2023-12-20T05:11:17;5.70;99.90
25128;DHT22;13107;51.304;6.866;2023-12-20T05:15:18;5.70;99.90
25128;DHT22;13107;51.304;6.866;2023-12-20T05:19:20;5.70;99.90
25128;DHT22;13107;51.304;6.866;2023-12-20T05:23:22;5.60;99.90
25128;DHT22;13107;51.304;6.866;2023-12-20T05:27:24;5.70;99.90
25128;DHT22;13107;51.304;6.866;2023-12-20T05:31:25;5.70;99.90
25128;DHT22;13107;51.304;6.866;2023-12-20T05:35:27;5.60;99.90
25128;DHT22;13107;51.304;6.866;2023-12-20T05:39:29;5.60;99.90
25128;DHT22;13107;51.304;6.866;2023-12-20T05:43:32;5.60;99.90
25128;DHT22;13107;51.304;6.866;2023-12-20T05:47:34;5.70;99.90
25128;DHT22;13107;51.304;6.866;2023-12-20T05:51:36;5.60;99.90
25128;DHT22;13107;51.304;6.866;2023-12-20T05:55:37;5.70;99.90
25128;DHT22;13107;51.304;6.866;2023-12-20T05:59:39;5.70;99.90
25128;DHT22;13107;51.304;6.866;2023-12-20T06:03:42;5.70;99.90
25128;DHT22;13107;51.304;6.866;2023-12-20T06:07:43;5.70;99.90
25128;DHT22;13107;51.304;6.866;2023-12-20T06:11:46;5.70;99.90
25128;DHT22;13107;51.304;6.866;2023-12-20T06:15:48;5.70;99.90
25128;DHT22;13107;51.304;6.866;2023-12-20T06:19:50;5.70;99.90
25128;DHT22;13107;51.304;6.866;2023-12-20T06:23:52;5.70;99.90
25128;DHT22;13107;51.304;6.866;2023-12-20T06:27:53;5.80;99.90
25128;DHT22;13107;51.304;6.866;2023-12-20T06:31:55;5.80;99.90
25128;DHT22;13107;51.304;6.866;2023-12-20T06:35:57;5.80;99.90
25128;DHT22;13107;51.304;6.866;2023-12-20T06:39:59;5.80;99.90
25128;DHT22;13107;51.304;6.866;2023-12-20T06:44:01;5.80;99.90
25128;DHT22;13107;51.304;6.866;2023-12-20T06:48:02;5.80;99.90
25128;DHT22;13107;51.304;6.866;2023-12-20T06:52:05;5.90;99.90
25128;DHT22;13107;51.304;6.866;2023-12-20T06:56:07;5.90;99.90
25128;DHT22;13107;51.304;6.866;2023-12-20T07:00:11;5.90;99.90
25128;DHT22;13107;51.304;6.866;2023-12-20T07:04:13;5.90;99.90
25128;DHT22;13107;51.304;6.866;2023-12-20T07:08:15;5.90;99.90
25128;DHT22;13107;51.304;6.866;2023-12-20T07:12:17;6.00;99.90
25128;DHT22;13107;51.304;6.866;2023-12-20T07:16:21;6.00;99.90
25128;DHT22;13107;51.304;6.866;2023-12-20T07:20:24;6.00;99.90
25128;DHT22;13107;51.304;6.866;2023-12-20T07:24:26;6.00;99.90
25128;DHT22;13107;51.304;6.866;2023-12-20T07:28:28;6.00;99.90
25128;DHT22;13107;51.304;6.866;2023-12-20T07:32:29;6.10;99.90
25128;DHT22;13107;51.304;6.866;2023-12-20T07:36:31;6.10;99.90
25128;DHT22;13107;51.304;6.866;2023-12-20T07:40:33;6.10;99.90
25128;DHT22;13107;51.304;6.866;2023-12-20T07:44:35;6.10;99.90
25128;DHT22;13107;51.304;6.866;2023-12-20T07:48:39;6.10;99.90
25128;DHT22;13107;51.304;6.866;2023-12-20T07:52:44;6.10;99.90
25128;DHT22;13107;51.304;6.866;2023-12-20T07:56:49;6.10;99.90
25128;DHT22;13107;51.304;6.866;2023-12-20T08:00:51;6.20;99.90
25128;DHT22;13107;51.304;6.866;2023-12-20T08:04:52;6.10;99.90
25128;DHT22;13107;51.304;6.866;2023-12-20T08:08:54;6.20;99.90
25128;DHT22;13107;51.304;6.866;2023-12-20T08:13:07;6.20;99.90
25128;DHT22;13107;51.304;6.866;2023-12-20T08:17:09;6.20;99.90
25128;DHT22;13107;51.304;6.866;2023-12-20T08:21:11;6.30;99.90
25128;DHT22;13107;51.304;6.866;2023-12-20T08:25:13;6.30;99.90
25128;DHT22;13107;51.304;6.866;2023-12-20T08:29:17;6.30;99.90
25128;DHT22;13107;51.304;6.866;2023-12-20T08:33:18;6.30;99.90
25128;DHT22;13107;51.304;6.866;2023-12-20T08:37:20;6.40;99.90
25128;DHT22;13107;51.304;6.866;2023-12-20T08:41:22;6.40;99.90
25128;DHT22;13107;51.304;6.866;2023-12-20T08:45:24;6.40;99.90
25128;DHT22;13107;51.304;6.866;2023-12-20T08:49:26;6.40;99.90
25128;DHT22;13107;51.304;6.866;2023-12-20T08:53:29;6.30;99.90
25128;DHT22;13107;51.304;6.866;2023-12-20T08:57:31;6.30;99.90
25128;DHT22;13107;51.304;6.866;2023-12-20T09:01:33;6.20;99.90
25128;DHT22;13107;51.304;6.866;2023-12-20T09:05:35;6.20;99.90
25128;DHT22;13107;51.304;6.866;2023-12-20T09:09:37;6.30;99.90
25128;DHT22;13107;51.304;6.866;2023-12-20T09:13:39;6.30;99.90
25128;DHT22;13107;51.304;6.866;2023-12-20T09:17:40;6.30;99.90
25128;DHT22;13107;51.304;6.866;2023-12-20T09:21:43;6.30;99.90
25128;DHT22;13107;51.304;6.866;2023-12-20T09:25:45;6.30;99.90
25128;DHT22;13107;51.304;6.866;2023-12-20T09:29:47;6.40;99.90
25128;DHT22;13107;51.304;6.866;2023-12-20T09:33:50;6.40;99.90
25128;DHT22;13107;51.304;6.866;2023-12-20T09:37:51;6.40;99.90
25128;DHT22;13107;51.304;6.866;2023-12-20T09:42:03;6.40;99.90
25128;DHT22;13107;51.304;6.866;2023-12-20T09:46:06;6.50;99.90
25128;DHT22;13107;51.304;6.866;2023-12-20T09:50:12;6.50;99.90
25128;DHT22;13107;51.304;6.866;2023-12-20T09:54:16;6.60;99.90
25128;DHT22;13107;51.304;6.866;2023-12-20T09:58:18;6.60;99.90
25128;DHT22;13107;51.304;6.866;2023-12-20T10:02:21;6.60;99.90
25128;DHT22;13107;51.304;6.866;2023-12-20T10:06:25;6.60;99.90
25128;DHT22;13107;51.304;6.866;2023-12-20T10:10:27;6.60;99.90
25128;DHT22;13107;51.304;6.866;2023-12-20T10:14:43;6.70;99.90
25128;DHT22;13107;51.304;6.866;2023-12-20T10:18:45;6.60;99.90
25128;DHT22;13107;51.304;6.866;2023-12-20T10:22:47;6.60;99.90
25128;DHT22;13107;51.304;6.866;2023-12-20T10:27:01;6.60;99.90
25128;DHT22;13107;51.304;6.866;2023-12-20T10:31:05;6.60;99.90
25128;DHT22;13107;51.304;6.866;2023-12-20T10:35:08;6.60;99.90
25128;DHT22;13107;51.304;6.866;2023-12-20T10:39:10;6.60;99.90
25128;DHT22;13107;51.304;6.866;2023-12-20T10:43:13;6.60;99.90
25128;DHT22;13107;51.304;6.866;2023-12-20T10:47:17;6.70;99.90
25128;DHT22;13107;51.304;6.866;2023-12-20T10:51:20;6.70;99.90
25128;DHT22;13107;51.304;6.866;2023-12-20T10:55:26;6.70;99.90
25128;DHT22;13107;51.304;6.866;2023-12-20T10:59:29;6.70;99.90
25128;DHT22;13107;51.304;6.866;2023-12-20T11:03:35;6.70;99.90
25128;DHT22;13107;51.304;6.866;2023-12-20T11:08:02;6.70;99.90
25128;DHT22;13107;51.304;6.866;2023-12-20T11:12:22;6.80;99.90
25128;DHT22;13107;51.304;6.866;2023-12-20T11:16:28;6.80;99.90
25128;DHT22;13107;51.304;6.866;2023-12-20T11:20:44;6.80;99.90
25128;DHT22;13107;51.304;6.866;2023-12-20T11:24:47;6.80;99.90
25128;DHT22;13107;51.304;6.866;2023-12-20T11:28:49;6.70;99.90
25128;DHT22;13107;51.304;6.866;2023-12-20T11:32:51;6.70;99.90
25128;DHT22;13107;51.304;6.866;2023-12-20T11:37:02;6.80;99.90
25128;DHT22;13107;51.304;6.866;2023-12-20T11:41:07;6.80;99.90
25128;DHT22;13107;51.304;6.866;2023-12-20T11:45:19;6.90;99.90
25128;DHT22;13107;51.304;6.866;2023-12-20T11:49:24;6.80;99.90
25128;DHT22;13107;51.304;6.866;2023-12-20T11:53:26;6.90;99.90
25128;DHT22;13107;51.304;6.866;2023-12-20T11:57:28;7.00;99.90
25128;DHT22;13107;51.304;6.866;2023-12-20T12:01:31;7.10;99.90
25128;DHT22;13107;51.304;6.866;2023-12-20T12:05:33;7.10;99.90
25128;DHT22;13107;51.304;6.866;2023-12-20T12:09:35;7.10;99.90
25128;DHT22;13107;51.304;6.866;2023-12-20T12:13:37;7.10;99.90
25128;DHT22;13107;51.304;6.866;2023-12-20T12:17:39;7.10;99.90
25128;DHT22;13107;51.304;6.866;2023-12-20T12:21:41;7.00;99.90
25128;DHT22;13107;51.304;6.866;2023-12-20T12:25:45;7.00;99.90
25128;DHT22;13107;51.304;6.866;2023-12-20T12:30:03;7.00;99.90
25128;DHT22;13107;51.304;6.866;2023-12-20T12:34:08;6.90;99.90
25128;DHT22;13107;51.304;6.866;2023-12-20T12:38:11;6.90;99.90
25128;DHT22;13107;51.304;6.866;2023-12-20T12:42:13;6.90;99.90
25128;DHT22;13107;51.304;6.866;2023-12-20T12:46:14;6.80;99.90
25128;DHT22;13107;51.304;6.866;2023-12-20T12:50:16;6.90;99.90
25128;DHT22;13107;51.304;6.866;2023-12-20T12:54:18;6.90;99.90
25128;DHT22;13107;51.304;6.866;2023-12-20T12:58:20;6.90;99.90
25128;DHT22;13107;51.304;6.866;2023-12-20T13:02:23;6.90;99.90
25128;DHT22;13107;51.304;6.866;2023-12-20T13:06:25;6.90;99.90
25128;DHT22;13107;51.304;6.866;2023-12-20T13:10:27;6.90;99.90
25128;DHT22;13107;51.304;6.866;2023-12-20T13:14:29;6.90;99.90
25128;DHT22;13107;51.304;6.866;2023-12-20T13:18:31;6.80;99.90
25128;DHT22;13107;51.304;6.866;2023-12-20T13:22:33;6.80;99.90
25128;DHT22;13107;51.304;6.866;2023-12-20T13:26:35;6.70;99.90
25128;DHT22;13107;51.304;6.866;2023-12-20T13:30:38;6.70;99.90
25128;DHT22;13107;51.304;6.866;2023-12-20T13:34:40;6.70;99.90
25128;DHT22;13107;51.304;6.866;2023-12-20T13:38:43;6.60;99.90
25128;DHT22;13107;51.304;6.866;2023-12-20T13:42:44;6.60;99.90
25128;DHT22;13107;51.304;6.866;2023-12-20T13:46:47;6.60;99.90
25128;DHT22;13107;51.304;6.866;2023-12-20T13:50:51;6.70;99.90
25128;DHT22;13107;51.304;6.866;2023-12-20T13:54:53;6.70;99.90
25128;DHT22;13107;51.304;6.866;2023-12-20T13:58:54;6.70;99.90
25128;DHT22;13107;51.304;6.866;2023-12-20T14:02:56;6.70;99.90
25128;DHT22;13107;51.304;6.866;2023-12-20T14:06:58;6.80;99.90
25128;DHT22;13107;51.304;6.866;2023-12-20T14:11:00;6.80;99.90
25128;DHT22;13107;51.304;6.866;2023-12-20T14:15:03;6.70;99.90
25128;DHT22;13107;51.304;6.866;2023-12-20T14:19:05;6.70;99.90
25128;DHT22;13107;51.304;6.866;2023-12-20T14:23:09;6.70;99.90
25128;DHT22;13107;51.304;6.866;2023-12-20T14:27:13;6.70;99.90
25128;DHT22;13107;51.304;6.866;2023-12-20T14:31:15;6.70;99.90
25128;DHT22;13107;51.304;6.866;2023-12-20T14:35:17;6.80;99.90
25128;DHT22;13107;51.304;6.866;2023-12-20T14:39:19;6.80;99.90
25128;DHT22;13107;51.304;6.866;2023-12-20T14:43:20;6.80;99.90
25128;DHT22;13107;51.304;6.866;2023-12-20T14:47:24;6.90;99.90
25128;DHT22;13107;51.304;6.866;2023-12-20T14:51:26;6.90;99.90
25128;DHT22;13107;51.304;6.866;2023-12-20T14:55:28;7.20;99.90
25128;DHT22;13107;51.304;6.866;2023-12-20T14:59:31;7.10;99.90
25128;DHT22;13107;51.304;6.866;2023-12-20T15:03:33;7.10;99.90
25128;DHT22;13107;51.304;6.866;2023-12-20T15:07:35;7.10;99.90
25128;DHT22;13107;51.304;6.866;2023-12-20T15:11:38;7.10;99.90
25128;DHT22;13107;51.304;6.866;2023-12-20T15:15:40;7.20;99.90
25128;DHT22;13107;51.304;6.866;2023-12-20T15:19:44;7.20;99.90
25128;DHT22;13107;51.304;6.866;2023-12-20T15:23:46;7.20;99.90
25128;DHT22;13107;51.304;6.866;2023-12-20T15:27:54;7.20;99.90
25128;DHT22;13107;51.304;6.866;2023-12-20T15:31:56;7.20;99.90
25128;DHT22;13107;51.304;6.866;2023-12-20T15:35:58;7.20;99.90
25128;DHT22;13107;51.304;6.866;2023-12-20T15:40:00;7.20;99.90
25128;DHT22;13107;51.304;6.866;2023-12-20T15:44:06;7.20;99.90
25128;DHT22;13107;51.304;6.866;2023-12-20T15:48:08;7.30;99.90
25128;DHT22;13107;51.304;6.866;2023-12-20T15:52:12;7.30;99.90
25128;DHT22;13107;51.304;6.866;2023-12-20T15:56:18;7.30;99.90
25128;DHT22;13107;51.304;6.866;2023-12-20T16:00:20;7.30;99.90
25128;DHT22;13107;51.304;6.866;2023-12-20T16:04:21;7.30;99.90
25128;DHT22;13107;51.304;6.866;2023-12-20T16:08:23;7.30;99.90
25128;DHT22;13107;51.304;6.866;2023-12-20T16:12:25;7.30;99.90
25128;DHT22;13107;51.304;6.866;2023-12-20T16:16:27;7.40;99.90
25128;DHT22;13107;51.304;6.866;2023-12-20T16:20:29;7.30;99.90
25128;DHT22;13107;51.304;6.866;2023-12-20T16:24:30;7.40;99.90
25128;DHT22;13107;51.304;6.866;2023-12-20T16:28:34;7.40;99.90
25128;DHT22;13107;51.304;6.866;2023-12-20T16:32:35;7.40;99.90
25128;DHT22;13107;51.304;6.866;2023-12-20T16:36:53;7.30;99.90
25128;DHT22;13107;51.304;6.866;2023-12-20T16:40:56;7.40;99.90
25128;DHT22;13107;51.304;6.866;2023-12-20T16:44:58;7.40;99.90
25128;DHT22;13107;51.304;6.866;2023-12-20T16:48:59;7.40;99.90
25128;DHT22;13107;51.304;6.866;2023-12-20T16:53:01;7.40;99.90
25128;DHT22;13107;51.304;6.866;2023-12-20T16:57:03;7.40;99.90
25128;DHT22;13107;51.304;6.866;2023-12-20T17:01:05;7.50;99.90
25128;DHT22;13107;51.304;6.866;2023-12-20T17:05:10;7.40;99.90
25128;DHT22;13107;51.304;6.866;2023-12-20T17:09:12;7.50;99.90
25128;DHT22;13107;51.304;6.866;2023-12-20T17:13:13;7.50;99.90
25128;DHT22;13107;51.304;6.866;2023-12-20T17:17:15;7.40;99.90
25128;DHT22;13107;51.304;6.866;2023-12-20T17:21:18;7.40;99.90
25128;DHT22;13107;51.304;6.866;2023-12-20T17:25:20;7.40;99.90
25128;DHT22;13107;51.304;6.866;2023-12-20T17:29:23;7.40;99.90
25128;DHT22;13107;51.304;6.866;2023-12-20T17:33:24;7.40;99.90
25128;DHT22;13107;51.304;6.866;2023-12-20T17:37:26;7.50;99.90
25128;DHT22;13107;51.304;6.866;2023-12-20T17:41:28;7.50;99.90
25128;DHT22;13107;51.304;6.866;2023-12-20T17:45:30;7.50;99.90
25128;DHT22;13107;51.304;6.866;2023-12-20T17:49:31;7.50;99.90
25128;DHT22;13107;51.304;6.866;2023-12-20T17:53:33;7.50;99.90
25128;DHT22;13107;51.304;6.866;2023-12-20T17:57:35;7.50;99.90
25128;DHT22;13107;51.304;6.866;2023-12-20T18:01:36;7.50;99.90
25128;DHT22;13107;51.304;6.866;2023-12-20T18:05:38;7.60;99.90
25128;DHT22;13107;51.304;6.866;2023-12-20T18:09:40;7.60;99.90
25128;DHT22;13107;51.304;6.866;2023-12-20T18:13:42;7.60;99.90
25128;DHT22;13107;51.304;6.866;2023-12-20T18:17:44;7.60;99.90
25128;DHT22;13107;51.304;6.866;2023-12-20T18:21:46;7.60;99.90
25128;DHT22;13107;51.304;6.866;2023-12-20T18:25:48;7.60;99.90
25128;DHT22;13107;51.304;6.866;2023-12-20T18:29:50;7.60;99.90
25128;DHT22;13107;51.304;6.866;2023-12-20T18:33:53;7.70;99.90
25128;DHT22;13107;51.304;6.866;2023-12-20T18:37:55;7.70;99.90
25128;DHT22;13107;51.304;6.866;2023-12-20T18:41:57;7.70;99.90
25128;DHT22;13107;51.304;6.866;2023-12-20T18:45:58;7.70;99.90
25128;DHT22;13107;51.304;6.866;2023-12-20T18:50:01;7.80;99.90
25128;DHT22;13107;51.304;6.866;2023-12-20T18:54:04;7.80;99.90
25128;DHT22;13107;51.304;6.866;2023-12-20T18:58:06;7.80;99.90
25128;DHT22;13107;51.304;6.866;2023-12-20T19:02:08;7.80;99.90
25128;DHT22;13107;51.304;6.866;2023-12-20T19:06:12;7.90;99.90
25128;DHT22;13107;51.304;6.866;2023-12-20T19:10:13;7.90;99.90
25128;DHT22;13107;51.304;6.866;2023-12-20T19:14:15;7.90;99.90
25128;DHT22;13107;51.304;6.866;2023-12-20T19:18:17;7.90;99.90
25128;DHT22;13107;51.304;6.866;2023-12-20T19:22:19;7.90;99.90
25128;DHT22;13107;51.304;6.866;2023-12-20T19:26:21;7.90;99.90
25128;DHT22;13107;51.304;6.866;2023-12-20T19:30:22;7.90;99.90
25128;DHT22;13107;51.304;6.866;2023-12-20T19:34:24;7.90;99.90
25128;DHT22;13107;51.304;6.866;2023-12-20T19:38:26;8.00;99.90
25128;DHT22;13107;51.304;6.866;2023-12-20T19:42:28;8.00;99.90
25128;DHT22;13107;51.304;6.866;2023-12-20T19:46:32;8.00;99.90
25128;DHT22;13107;51.304;6.866;2023-12-20T19:50:34;8.00;99.90
25128;DHT22;13107;51.304;6.866;2023-12-20T19:54:36;8.10;99.90
25128;DHT22;13107;51.304;6.866;2023-12-20T19:58:37;8.20;99.90
25128;DHT22;13107;51.304;6.866;2023-12-20T20:02:39;8.10;99.90
25128;DHT22;13107;51.304;6.866;2023-12-20T20:06:41;8.10;99.90
25128;DHT22;13107;51.304;6.866;2023-12-20T20:10:43;8.00;99.90
25128;DHT22;13107;51.304;6.866;2023-12-20T20:14:44;8.10;99.90
25128;DHT22;13107;51.304;6.866;2023-12-20T20:18:46;8.00;99.90
25128;DHT22;13107;51.304;6.866;2023-12-20T20:22:48;8.00;99.90
25128;DHT22;13107;51.304;6.866;2023-12-20T20:26:50;8.00;99.90
25128;DHT22;13107;51.304;6.866;2023-12-20T20:30:52;8.00;99.90
25128;DHT22;13107;51.304;6.866;2023-12-20T20:34:54;8.00;99.90
25128;DHT22;13107;51.304;6.866;2023-12-20T20:38:56;8.00;99.90
25128;DHT22;13107;51.304;6.866;2023-12-20T20:42:57;8.00;99.90
25128;DHT22;13107;51.304;6.866;2023-12-20T20:46:59;8.00;99.90
25128;DHT22;13107;51.304;6.866;2023-12-20T20:51:02;8.00;99.90
25128;DHT22;13107;51.304;6.866;2023-12-20T20:55:04;7.90;99.90
25128;DHT22;13107;51.304;6.866;2023-12-20T20:59:06;7.90;99.90
25128;DHT22;13107;51.304;6.866;2023-12-20T21:03:08;7.90;99.90
25128;DHT22;13107;51.304;6.866;2023-12-20T21:07:10;7.80;99.90
25128;DHT22;13107;51.304;6.866;2023-12-20T21:11:12;7.80;99.90
25128;DHT22;13107;51.304;6.866;2023-12-20T21:15:16;7.80;99.90
25128;DHT22;13107;51.304;6.866;2023-12-20T21:19:18;7.80;99.90
25128;DHT22;13107;51.304;6.866;2023-12-20T21:23:27;7.80;99.90
25128;DHT22;13107;51.304;6.866;2023-12-20T21:27:29;7.70;99.90
25128;DHT22;13107;51.304;6.866;2023-12-20T21:31:33;7.70;99.90
25128;DHT22;13107;51.304;6.866;2023-12-20T21:35:35;7.80;99.90
25128;DHT22;13107;51.304;6.866;2023-12-20T21:39:37;7.80;99.90
25128;DHT22;13107;51.304;6.866;2023-12-20T21:43:40;7.70;99.90
25128;DHT22;13107;51.304;6.866;2023-12-20T21:47:42;7.70;99.90
25128;DHT22;13107;51.304;6.866;2023-12-20T21:51:44;7.70;99.90
25128;DHT22;13107;51.304;6.866;2023-12-20T21:55:46;7.70;99.90
25128;DHT22;13107;51.304;6.866;2023-12-20T21:59:48;7.70;99.90
25128;DHT22;13107;51.304;6.866;2023-12-20T22:03:50;7.70;99.90
25128;DHT22;13107;51.304;6.866;2023-12-20T22:07:52;7.70;99.90
25128;DHT22;13107;51.304;6.866;2023-12-20T22:11:54;7.70;99.90
25128;DHT22;13107;51.304;6.866;2023-12-20T22:15:56;7.70;99.90
25128;DHT22;13107;51.304;6.866;2023-12-20T22:19:58;7.70;99.90
25128;DHT22;13107;51.304;6.866;2023-12-20T22:24:00;7.80;99.90
25128;DHT22;13107;51.304;6.866;2023-12-20T22:28:02;7.80;99.90
25128;DHT22;13107;51.304;6.866;2023-12-20T22:32:04;7.80;99.90
25128;DHT22;13107;51.304;6.866;2023-12-20T22:36:10;7.80;99.90
25128;DHT22;13107;51.304;6.866;2023-12-20T22:40:12;7.80;99.90
25128;DHT22;13107;51.304;6.866;2023-12-20T22:44:16;7.80;99.90
25128;DHT22;13107;51.304;6.866;2023-12-20T22:48:18;7.80;99.90
25128;DHT22;13107;51.304;6.866;2023-12-20T22:52:20;7.90;99.90
25128;DHT22;13107;51.304;6.866;2023-12-20T22:56:26;7.90;99.90
25128;DHT22;13107;51.304;6.866;2023-12-20T23:00:28;7.90;99.90
25128;DHT22;13107;51.304;6.866;2023-12-20T23:04:49;7.90;99.90
25128;DHT22;13107;51.304;6.866;2023-12-20T23:13:48;7.90;99.90
25128;DHT22;13107;51.304;6.866;2023-12-20T23:17:51;7.90;99.90
25128;DHT22;13107;51.304;6.866;2023-12-20T23:21:54;7.90;99.90
25128;DHT22;13107;51.304;6.866;2023-12-20T23:25:58;8.00;99.90
25128;DHT22;13107;51.304;6.866;2023-12-20T23:29:59;8.00;99.90
25128;DHT22;13107;51.304;6.866;2023-12-20T23:34:01;8.00;99.90
25128;DHT22;13107;51.304;6.866;2023-12-20T23:38:03;7.90;99.90
25128;DHT22;13107;51.304;6.866;2023-12-20T23:42:06;8.00;99.90
25128;DHT22;13107;51.304;6.866;2023-12-20T23:46:07;8.00;99.90
25128;DHT22;13107;51.304;6.866;2023-12-20T23:50:10;8.00;99.90
25128;DHT22;13107;51.304;6.866;2023-12-20T23:54:12;8.00;99.90
25128;DHT22;13107;51.304;6.866;2023-12-20T23:58:14;8.10;99.90
